International Virtual Aviation Organisation

Russian Federation and Kazakhstan MCD

 

Карточка аэропорта URWW

Внимание!
Информация на этой странице в стадии наполнения.
Если вы не увидели какой-то информации, или заметили неточность - пожалуйста сообщите нам!
Спасибо!
Команда RU-STAFF
Название аэропортаГумрак
Название аэропорта (англ.)Gumrak
Превышение482 ft. (146.9 m.)
Координаты48°46.95', 44°20.736'
Высота перехода700m
Эшелон переходаQFE>=747mm:FL040; QFE<747=>720:FL050; QFE<720:FL060
Коды ответчика1020-1027
Зона ОрВДРостов-на-Дону РПИ (URRV)
Данные METARURWW 300100Z 12007MPS 9999 OVC005 M02/M03 Q1034 R06/010070 TEMPO 0300 FZFG OVC002 RMK OBST OBSC
Проноз погоды (TAF)NODATA
NOTAMshow/hide NOTAM
AWOS   TABLE

Информация о ВПП

ВПП Длина ВПП (м.) Покрытие Курс ВПП Частота ILS
242800Асфальтобетон235110.5
062800Асфальтобетон55111.7

Диспетчерские позиции

Позывной Наименование органа УВД Частота
URWW_APPВолгоград-Подход125.3
URWW_R_APPВолгоград-Круг122.0
URWW_TWRВолгоград-Вышка128.0
URWW_GNDВолгоград-Руление119.0



Спутниковое изображение